Flight Track Log - Related Links

Times and Time Zones

All times are in EDT time to prevent confusion due to time zone crossing. See the EJA641 flight status page for this flight to view local times or setup timezone preferences in your user account.

Time Position Orientation Groundspeed Altitude Reporting Facility
EDT Latitude Longitude Course Direction KTS MPH feet Rate Location/Type
Mon 06:11:39 PM 32.0600 -81.1128 193° South 218 251 6,300  Level Jacksonville Center
Mon 06:12:39 PM 32.0042 -81.1483 208° Southwest 244 281 9,500 1,800 Climbing Jacksonville Center
Mon 06:13:39 PM 31.9444 -81.2058 219° Southwest 299 344 9,900 750 Climbing Jacksonville Center
Mon 06:14:39 PM 31.8764 -81.2656 217° Southwest 308 354 11,000 1,600 Climbing Jacksonville Center
Mon 06:15:00 PM 31.6709 -81.3158 190° South  Level FlightAware Approximate
Mon 06:15:39 PM 31.7992 -81.2719 184° South 280 322 13,100  Level Jacksonville Center
Mon 06:16:00 PM 31.5719 -81.3363 193° South  Level FlightAware Approximate
Mon 06:16:39 PM 31.7261 -81.2658 176° South 290 334 14,900  Level Jacksonville Center
Mon 06:17:39 PM 31.6319 -81.2603 177° South 295 339 17,000 1,950 Climbing Jacksonville Center
Mon 06:18:39 PM 31.5464 -81.2519 175° South 307 353 18,800 1,550 Climbing Jacksonville Center
Mon 06:19:39 PM 31.4669 -81.2483 178° South 321 369 20,100 1,500 Climbing Jacksonville Center
Mon 06:20:39 PM 31.3625 -81.2406 176° South 338 389 21,800 950 Climbing Jacksonville Center
Mon 06:21:39 PM 31.2706 -81.2397 180° South 353 406 22,000 100 Climbing Jacksonville Center
Mon 06:22:39 PM 31.1681 -81.2294 175° South 366 421 22,000  Level Jacksonville Center
Mon 06:23:39 PM 31.0617 -81.2264 179° South 377 434 22,000  Level Jacksonville Center
Mon 06:24:39 PM 30.9550 -81.2139 174° South 384 442 22,000  Level Jacksonville Center
Mon 06:25:39 PM 30.8561 -81.1697 159° South 384 442 22,000  Level Jacksonville Center
Mon 06:26:39 PM 30.7539 -81.1642 177° South 373 429 22,000  Level Jacksonville Center
Mon 06:27:39 PM 30.6536 -81.1611 178° South 368 423 22,000  Level Jacksonville Center
Mon 06:28:39 PM 30.5428 -81.1558 178° South 373 429 22,000  Level Jacksonville Center
Mon 06:29:39 PM 30.4319 -81.1364 171° South 393 452 22,000  Level Jacksonville Center
Mon 06:30:39 PM 30.3208 -81.1094 168° South 404 465 22,000  Level Jacksonville Center
Mon 06:31:39 PM 30.1972 -81.0806 169° South 410 472 22,000  Level Jacksonville Center
Mon 06:32:39 PM 30.0861 -81.0536 168° South 410 472 22,000  Level Jacksonville Center
Mon 06:33:39 PM 29.9731 -81.0272 169° South 410 472 22,000  Level Jacksonville Center
Mon 06:34:39 PM 29.8622 -81.0031 169° South 410 472 22,000  Level Jacksonville Center
Mon 06:35:39 PM 29.7531 -80.9764 168° South 410 472 22,000  Level Jacksonville Center
Mon 06:36:39 PM 29.6442 -80.9497 168° South 410 472 22,000  Level Jacksonville Center
Mon 06:37:39 PM 29.5331 -80.9208 167° South 410 472 22,000  Level Jacksonville Center
Mon 06:38:39 PM 29.4242 -80.8944 168° South 410 472 22,000  Level Jacksonville Center
Mon 06:39:39 PM 29.3111 -80.8683 169° South 410 472 22,000  Level Jacksonville Center
Mon 06:40:39 PM 29.1986 -80.8478 171° South 412 474 22,000  Level Miami Center
Mon 06:41:39 PM 29.0911 -80.8178 166° South 412 474 22,000  Level Miami Center
Mon 06:42:39 PM 28.9811 -80.7947 170° South 412 474 22,000  Level Miami Center
Mon 06:43:39 PM 28.8878 -80.7700 167° South 397 457 22,000  Level Miami Center
Mon 06:44:39 PM 28.7781 -80.7472 170° South 397 457 22,000  Level Miami Center
Mon 06:45:39 PM 28.6558 -80.7169 168° South 402 463 22,000 -150 Level Miami Center
Mon 06:46:39 PM 28.5472 -80.7181 181° South 402 463 21,700 -950 Descending Miami Center
Mon 06:47:39 PM 28.4719 -80.7956 222° Southwest 362 417 20,100 -850 Descending Miami Center
Mon 06:48:39 PM 28.4117 -80.8689 227° Southwest 362 417 20,000 -50 Descending Miami Center
Mon 06:49:39 PM 28.3283 -80.9319 214° Southwest 362 417 20,000  Level Miami Center
Mon 06:50:39 PM 28.2311 -80.9803 204° Southwest 367 422 20,000 -150 Level Miami Center
Mon 06:51:39 PM 28.1319 -81.0167 198° South 373 429 19,700 -800 Descending Miami Center
Mon 06:52:39 PM 28.0233 -81.0244 184° South 383 441 18,400 -1,100 Descending Miami Center
Mon 06:53:39 PM 27.9203 -81.0467 191° South 361 415 17,500 -1,200 Descending Miami Center
Mon 06:54:39 PM 27.8331 -81.0997 208° Southwest 352 405 16,000 -750 Descending Miami Center
Mon 06:55:39 PM 27.7589 -81.1439 208° Southwest 347 399 16,000 -500 Level Miami Center
Mon 06:56:39 PM 27.6500 -81.1517 184° South 347 399 15,000 -1,450 Descending Miami Center
Mon 06:57:39 PM 27.5542 -81.1433 176° South 347 399 13,100 -1,900 Descending Miami Center
Mon 06:58:39 PM 27.4622 -81.1469 182° South 347 399 11,200 -1,550 Descending Miami Center
Mon 06:59:39 PM 27.3939 -81.1981 214° Southwest 327 376 10,000 -600 Descending Miami Center
Mon 07:00:39 PM 27.3086 -81.2628 214° Southwest 335 386 10,000  Level Miami Center
Mon 07:01:39 PM 27.2297 -81.3133 210° Southwest 335 386 10,000 -50 Level Miami Center
Mon 07:02:39 PM 27.1633 -81.3667 216° Southwest 335 386 9,900 -50 Descending Miami Center
Mon 07:03:39 PM 27.0842 -81.4267 214° Southwest 340 391 9,900 50 Level Miami Center
Mon 07:04:39 PM 27.0058 -81.4678 205° Southwest 328 377 10,000 50 Climbing Miami Center
Mon 07:05:39 PM 26.9067 -81.4314 162° South 309 356 10,000  Level Miami Center
Mon 07:06:39 PM 26.8225 -81.3886 156° South 324 373 10,000  Level Miami Center
Mon 07:07:39 PM 26.7286 -81.3850 178° South 328 377 10,000  Level Miami Center
Mon 07:08:39 PM 26.6425 -81.3978 188° South 343 395 10,000 -50 Level Miami Center
Mon 07:09:39 PM 26.5422 -81.4033 183° South 348 400 9,900 -650 Descending Miami Center
Mon 07:10:39 PM 26.4664 -81.4236 193° South 330 380 8,700 -1,300 Descending Miami Center
Mon 07:11:39 PM 26.3967 -81.4486 198° South 294 338 7,300 -1,400 Descending Miami Center
Mon 07:13:00 PM 26.2858 -81.5046 233° Southwest  Level FlightAware Approximate
Mon 07:20:00 PM 26.1500 -81.7667 246° West  Level FlightAware Approximate
Mon 07:21:00 PM 26.1524 -81.7756 246° West  Level Estimated
Mon 07:22:00 PM 26.1524 -81.7756 246° West  Level Estimated
Mon 07:23:00 PM 26.1524 -81.7756 246° West  Level Estimated
Mon 07:24:00 PM 26.1524 -81.7756 246° West  Level Estimated
Mon 07:25:00 PM 26.1524 -81.7756 246° West  Level Estimated
Mon 07:26:00 PM 26.1524 -81.7756 246° West  Level Estimated
Mon 07:27:00 PM 26.1524 -81.7756 246° West  Level Estimated
Mon 07:28:00 PM 26.1524 -81.7756 246° West  Level Estimated

Login

Don't have an account? Register now (free) for customized features, flight alerts, and more!